Time;durP1;ratioP1;P1;durP2;ratioP2;P2;SDS_P1;SDS_P2;PMS_P1;PMS_P2;Temp;Humidity;BMP_temperature;BMP_pressure;BME280_temperature;BME280_humidity;BME280_pressure;Samples;Min_cycle;Max_cycle;Signal;HPM_P1;HPM_P2
2022/12/31 00:00:37;;;;;;;30.20;16.15;;;6.00;99.90;;;;;;2602146;54;20060;31
2022/12/31 00:03:11;;;;;;;;;;;6.00;99.90;;;;;;2603288;54;20037;31
2022/12/31 00:05:46;;;;;;;30.37;15.97;;;6.00;99.90;;;;;;2602939;54;19973;31
2022/12/31 00:08:22;;;;;;;28.50;15.48;;;6.00;99.90;;;;;;2603021;54;20052;31
2022/12/31 00:11:00;;;;;;;31.77;16.40;;;6.00;99.90;;;;;;2602980;54;20883;31
2022/12/31 00:13:35;;;;;;;25.25;15.15;;;6.00;99.90;;;;;;2603050;54;21415;31
2022/12/31 00:16:11;;;;;;;23.88;14.25;;;5.90;99.90;;;;;;2602991;54;20031;31
2022/12/31 00:18:47;;;;;;;23.13;14.33;;;6.00;99.90;;;;;;2603188;54;20828;31
2022/12/31 00:21:22;;;;;;;24.60;13.68;;;6.00;99.90;;;;;;2603267;54;20116;31
2022/12/31 00:23:57;;;;;;;;;;;6.10;99.90;;;;;;2603207;54;20029;31
2022/12/31 00:26:35;;;;;;;23.17;13.20;;;6.10;99.90;;;;;;2602955;54;19938;31
2022/12/31 00:29:09;;;;;;;21.75;12.20;;;6.10;99.90;;;;;;2603110;54;20783;31
2022/12/31 00:31:44;;;;;;;22.23;13.50;;;6.20;99.90;;;;;;2603115;54;20027;31
2022/12/31 00:34:18;;;;;;;23.30;11.98;;;6.10;99.90;;;;;;2602846;54;20951;31
2022/12/31 00:36:53;;;;;;;22.05;11.73;;;6.30;99.90;;;;;;2602807;54;20833;31
2022/12/31 00:39:28;;;;;;;18.25;10.80;;;6.30;99.90;;;;;;2603092;54;20081;31
2022/12/31 00:42:06;;;;;;;21.57;11.10;;;6.40;99.90;;;;;;2602839;54;20984;31
2022/12/31 00:44:43;;;;;;;17.80;10.90;;;6.40;99.90;;;;;;2603047;54;20027;31
2022/12/31 00:47:19;;;;;;;20.73;10.25;;;6.50;99.90;;;;;;2602947;54;20909;31
2022/12/31 00:49:54;;;;;;;16.23;10.60;;;6.60;99.90;;;;;;2602825;54;21012;31
2022/12/31 00:52:29;;;;;;;16.15;9.23;;;6.60;99.90;;;;;;2602906;54;20030;31
2022/12/31 00:55:04;;;;;;;15.20;9.80;;;6.70;99.90;;;;;;2602913;54;20113;31
2022/12/31 00:57:42;;;;;;;14.47;9.03;;;6.70;99.90;;;;;;2602868;54;20127;31
2022/12/31 01:00:20;;;;;;;15.50;10.27;;;6.80;99.90;;;;;;2602833;54;20001;31
2022/12/31 01:02:55;;;;;;;16.33;9.98;;;6.80;99.90;;;;;;2602766;54;20919;31
2022/12/31 01:05:32;;;;;;;15.00;9.10;;;6.80;99.90;;;;;;2602881;54;20868;31
2022/12/31 01:08:07;;;;;;;;;;;6.90;99.90;;;;;;2603042;54;20141;31
2022/12/31 01:13:32;;;;;;;12.10;7.07;;;7.00;99.90;;;;;;2603298;54;20031;31
2022/12/31 01:16:11;;;;;;;12.57;7.75;;;7.00;99.90;;;;;;2603716;54;20026;31
2022/12/31 01:18:47;;;;;;;11.90;7.53;;;7.00;99.90;;;;;;2622224;46;20045;31
2022/12/31 01:21:21;;;;;;;;;;;7.10;99.90;;;;;;2603684;54;20904;31
2022/12/31 01:23:56;;;;;;;13.02;7.95;;;7.10;99.90;;;;;;2603037;54;20010;31
2022/12/31 01:26:32;;;;;;;11.97;7.40;;;7.10;99.90;;;;;;2603391;54;20022;31
2022/12/31 01:29:10;;;;;;;11.15;7.22;;;7.20;99.90;;;;;;2602854;54;20034;31
2022/12/31 01:31:46;;;;;;;12.60;7.45;;;7.20;99.90;;;;;;2603626;54;20046;31
2022/12/31 01:34:21;;;;;;;12.00;7.87;;;7.20;99.90;;;;;;2603691;54;20030;31
2022/12/31 01:37:00;;;;;;;12.07;7.13;;;7.30;99.90;;;;;;2603601;54;20030;31
2022/12/31 01:39:35;;;;;;;11.32;7.93;;;7.30;99.90;;;;;;2701984;39;21946;31
2022/12/31 01:42:11;;;;;;;12.30;7.60;;;7.30;99.90;;;;;;2603427;54;20030;31
2022/12/31 01:45:03;;;;;;;11.30;7.40;;;7.40;99.90;;;;;;2603504;54;20146;31
2022/12/31 01:47:41;;;;;;;12.13;7.75;;;7.40;99.90;;;;;;2603639;54;20112;31
2022/12/31 01:50:15;;;;;;;9.90;6.88;;;7.40;99.90;;;;;;2603782;54;20030;31
2022/12/31 01:52:51;;;;;;;10.07;6.75;;;7.50;99.90;;;;;;2603410;54;21037;31
2022/12/31 01:55:27;;;;;;;10.85;7.00;;;7.50;99.90;;;;;;2701995;39;21435;31
2022/12/31 01:58:06;;;;;;;11.20;6.43;;;7.60;99.90;;;;;;2603521;54;20848;31
2022/12/31 02:00:43;;;;;;;9.05;6.20;;;7.50;99.90;;;;;;2603391;54;20085;31
2022/12/31 02:03:17;;;;;;;9.27;6.82;;;7.50;99.90;;;;;;2603609;54;19935;31
2022/12/31 02:05:53;;;;;;;9.85;5.88;;;7.60;99.90;;;;;;2603630;54;20026;31
2022/12/31 02:08:29;;;;;;;9.25;5.78;;;7.60;99.90;;;;;;2603462;54;20089;31
2022/12/31 02:11:04;;;;;;;8.30;5.70;;;7.60;99.90;;;;;;2603407;54;20031;31
2022/12/31 02:13:41;;;;;;;9.23;5.70;;;7.60;99.90;;;;;;2603511;54;20068;31
2022/12/31 02:16:20;;;;;;;8.68;6.15;;;7.70;99.90;;;;;;2602847;54;20054;31
2022/12/31 02:18:57;;;;;;;6.82;4.18;;;7.70;99.90;;;;;;2603496;54;20089;31
2022/12/31 02:21:49;;;;;;;5.38;3.50;;;7.80;99.90;;;;;;2603191;54;20126;31
2022/12/31 02:24:45;;;;;;;12.27;3.60;;;7.90;99.90;;;;;;2603032;54;20912;31
2022/12/31 02:27:27;;;;;;;5.35;3.50;;;7.90;99.90;;;;;;2603552;54;20053;31
2022/12/31 02:30:22;;;;;;;3.77;2.63;;;8.00;99.90;;;;;;2608798;46;20831;31
2022/12/31 02:33:10;;;;;;;5.75;3.15;;;8.10;99.90;;;;;;2603699;54;20880;31
2022/12/31 02:35:48;;;;;;;4.40;2.97;;;8.10;99.90;;;;;;2603260;54;20026;31
2022/12/31 02:38:25;;;;;;;3.85;2.60;;;8.20;99.90;;;;;;2603354;54;20038;31
2022/12/31 02:41:00;;;;;;;3.22;2.35;;;8.30;99.90;;;;;;2603331;54;20029;31
2022/12/31 02:43:35;;;;;;;4.57;2.92;;;8.30;99.90;;;;;;2602496;54;20394;31
2022/12/31 02:46:15;;;;;;;5.43;3.40;;;8.40;99.90;;;;;;2603346;54;20889;31
2022/12/31 02:48:54;;;;;;;3.88;2.95;;;8.40;99.90;;;;;;2603137;54;20046;31
2022/12/31 02:51:35;;;;;;;4.05;2.60;;;8.40;99.90;;;;;;2609706;39;21010;31
2022/12/31 02:54:18;;;;;;;3.75;2.70;;;8.50;99.90;;;;;;2603427;54;20023;31
2022/12/31 02:57:08;;;;;;;4.35;3.08;;;8.50;99.90;;;;;;2603161;54;20028;31
2022/12/31 03:05:08;;;;;;;4.67;2.87;;;8.60;99.90;;;;;;2603359;54;20089;31
2022/12/31 03:07:43;;;;;;;3.03;2.60;;;8.60;99.90;;;;;;2603118;54;20081;31
2022/12/31 03:10:18;;;;;;;3.72;2.70;;;8.60;99.90;;;;;;2603120;54;20867;31
2022/12/31 03:12:52;;;;;;;4.10;2.60;;;8.60;99.90;;;;;;2602284;54;20584;31
2022/12/31 03:15:28;;;;;;;5.17;4.00;;;8.60;99.90;;;;;;2603169;54;20022;31
2022/12/31 03:18:04;;;;;;;5.82;4.53;;;8.60;99.90;;;;;;2603245;54;20486;31
2022/12/31 03:23:32;;;;;;;5.85;4.30;;;8.60;99.90;;;;;;2603074;54;20897;31
2022/12/31 03:26:08;;;;;;;8.25;5.05;;;8.60;99.90;;;;;;2603270;54;20129;31
2022/12/31 03:28:46;;;;;;;7.07;4.80;;;8.60;99.90;;;;;;2621020;46;20078;31
2022/12/31 03:31:19;;;;;;;7.05;5.20;;;8.60;99.90;;;;;;2603246;54;20026;31
2022/12/31 03:33:54;;;;;;;8.18;5.30;;;8.60;99.90;;;;;;2603012;54;20020;31
2022/12/31 03:36:32;;;;;;;5.25;4.00;;;8.60;99.90;;;;;;2603089;54;20026;31
2022/12/31 03:39:07;;;;;;;5.60;3.67;;;8.60;99.90;;;;;;2602310;54;20911;31
2022/12/31 03:41:42;;;;;;;4.35;3.00;;;8.60;99.90;;;;;;2603047;54;20129;31
2022/12/31 03:44:17;;;;;;;5.10;3.65;;;8.60;99.90;;;;;;2603136;54;20893;31
2022/12/31 03:46:54;;;;;;;6.45;4.50;;;8.60;99.90;;;;;;2603195;54;20906;31
2022/12/31 03:49:30;;;;;;;5.50;4.10;;;8.60;99.90;;;;;;2603066;54;20042;31
2022/12/31 03:52:07;;;;;;;5.35;3.63;;;8.60;99.90;;;;;;2603047;54;20884;31
2022/12/31 03:54:42;;;;;;;4.03;3.08;;;8.60;99.90;;;;;;2603192;54;20092;31
2022/12/31 03:57:18;;;;;;;5.67;3.57;;;8.60;99.90;;;;;;2602911;54;20046;31
2022/12/31 03:59:52;;;;;;;;;;;8.60;99.90;;;;;;2603495;54;20023;31
2022/12/31 04:02:27;;;;;;;4.45;3.60;;;8.60;99.90;;;;;;2603226;54;20694;31
2022/12/31 04:05:04;;;;;;;7.05;3.55;;;8.60;99.90;;;;;;2603096;54;20569;31
2022/12/31 04:07:43;;;;;;;5.43;3.70;;;8.60;99.90;;;;;;2701696;39;20516;31
2022/12/31 04:10:18;;;;;;;5.53;3.73;;;8.60;99.90;;;;;;2603019;54;21149;31
2022/12/31 04:12:53;;;;;;;5.80;4.00;;;8.60;99.90;;;;;;2602968;54;20026;31
2022/12/31 04:15:30;;;;;;;5.50;3.87;;;8.60;99.90;;;;;;2603109;54;20769;31
2022/12/31 04:18:04;;;;;;;5.77;3.63;;;8.60;99.90;;;;;;2602813;54;20590;31
2022/12/31 04:20:41;;;;;;;5.60;3.72;;;8.60;99.90;;;;;;2602290;54;21687;31
2022/12/31 04:23:19;;;;;;;4.50;3.45;;;8.60;99.90;;;;;;2603153;54;20893;31
2022/12/31 04:25:55;;;;;;;4.80;3.80;;;8.60;99.90;;;;;;2603026;54;20061;31
2022/12/31 04:28:29;;;;;;;;;;;8.70;99.90;;;;;;2603024;54;20052;31
2022/12/31 04:31:04;;;;;;;6.40;3.75;;;8.60;99.90;;;;;;2603204;54;20724;31
2022/12/31 04:33:40;;;;;;;5.53;3.58;;;8.60;99.90;;;;;;2602046;54;20051;31
2022/12/31 04:36:21;;;;;;;5.30;3.33;;;8.60;99.90;;;;;;2602905;54;20026;31
2022/12/31 04:38:59;;;;;;;6.07;3.95;;;8.60;99.90;;;;;;2602999;54;20030;31
2022/12/31 04:41:34;;;;;;;4.78;3.13;;;8.60;99.90;;;;;;2602915;54;20951;31
2022/12/31 04:44:09;;;;;;;4.20;3.45;;;8.60;99.90;;;;;;2621235;47;20033;31
2022/12/31 04:46:46;;;;;;;3.60;2.72;;;8.60;99.90;;;;;;2602989;54;20896;31
2022/12/31 04:49:21;;;;;;;4.47;3.57;;;8.60;99.90;;;;;;2603553;54;20019;31
2022/12/31 04:51:58;;;;;;;4.53;3.08;;;8.60;99.90;;;;;;2603791;54;20065;31
2022/12/31 04:54:36;;;;;;;4.15;3.35;;;8.60;99.90;;;;;;2603477;54;20862;31
2022/12/31 04:57:11;;;;;;;4.55;3.35;;;8.60;99.90;;;;;;2603922;54;20909;31
2022/12/31 04:59:46;;;;;;;4.30;3.50;;;8.60;99.90;;;;;;2603658;54;20045;31
2022/12/31 05:02:21;;;;;;;4.88;3.20;;;8.60;99.90;;;;;;2603439;54;21157;31
2022/12/31 05:04:59;;;;;;;5.43;3.20;;;8.60;99.90;;;;;;2603817;54;20077;31
2022/12/31 05:07:34;;;;;;;4.05;2.60;;;8.60;99.90;;;;;;2603650;54;20097;31
2022/12/31 05:10:12;;;;;;;4.45;2.33;;;8.60;99.90;;;;;;2603640;54;20061;31
2022/12/31 05:12:46;;;;;;;3.97;2.60;;;8.60;99.90;;;;;;2603520;54;20104;31
2022/12/31 05:15:21;;;;;;;3.60;2.50;;;8.60;99.90;;;;;;2603747;54;20085;31
2022/12/31 05:17:56;;;;;;;4.47;2.88;;;8.70;99.90;;;;;;2702030;39;21671;31
2022/12/31 05:20:31;;;;;;;4.00;2.15;;;8.70;99.90;;;;;;2603728;54;20921;31
2022/12/31 05:23:06;;;;;;;3.97;2.33;;;8.70;99.90;;;;;;2603598;54;20796;31
2022/12/31 05:25:44;;;;;;;2.70;1.88;;;8.70;99.90;;;;;;2603754;54;20885;31
2022/12/31 05:28:19;;;;;;;4.27;2.33;;;8.60;99.90;;;;;;2603876;54;20864;31
2022/12/31 05:30:55;;;;;;;3.08;2.08;;;8.70;99.90;;;;;;2603482;54;20072;31
2022/12/31 05:33:30;;;;;;;3.85;2.38;;;8.70;99.90;;;;;;2621854;46;20085;31
2022/12/31 05:36:06;;;;;;;3.30;1.90;;;8.70;99.90;;;;;;2603756;54;20030;31
2022/12/31 05:38:42;;;;;;;3.30;2.35;;;8.80;99.90;;;;;;2603432;54;20242;31
2022/12/31 05:41:21;;;;;;;3.05;1.90;;;8.80;99.90;;;;;;2603472;54;20026;31
2022/12/31 05:43:56;;;;;;;3.90;2.25;;;8.80;99.90;;;;;;2603619;54;20030;31
2022/12/31 05:46:32;;;;;;;;;;;8.90;99.90;;;;;;2602950;54;20271;31
2022/12/31 05:49:06;;;;;;;3.20;1.90;;;8.90;99.90;;;;;;2603059;54;20775;31
2022/12/31 05:51:41;;;;;;;3.33;1.80;;;8.90;99.90;;;;;;2603530;54;20034;31
2022/12/31 05:54:17;;;;;;;3.40;1.83;;;8.90;99.90;;;;;;2603330;54;20022;31
2022/12/31 05:56:56;;;;;;;3.47;1.83;;;9.00;99.90;;;;;;2602789;54;20051;31
2022/12/31 05:59:32;;;;;;;3.80;2.20;;;9.00;99.90;;;;;;2603248;54;20804;31
2022/12/31 06:02:08;;;;;;;3.10;1.95;;;9.00;99.90;;;;;;2603361;54;20794;31
2022/12/31 06:04:42;;;;;;;3.25;1.90;;;9.00;99.90;;;;;;2603781;54;20103;31
2022/12/31 06:07:17;;;;;;;1.70;1.27;;;9.00;99.90;;;;;;2603547;54;20092;31
2022/12/31 06:09:53;;;;;;;2.63;1.60;;;9.10;99.90;;;;;;2603362;54;19941;31
2022/12/31 06:12:31;;;;;;;2.63;1.73;;;9.10;99.90;;;;;;2603634;54;20892;31
2022/12/31 06:15:09;;;;;;;2.10;1.67;;;9.10;99.90;;;;;;2603357;54;20035;31
2022/12/31 06:17:43;;;;;;;3.15;2.10;;;9.10;99.90;;;;;;2603624;54;20026;31
2022/12/31 06:20:18;;;;;;;2.20;1.67;;;9.20;99.90;;;;;;2603416;54;20910;31
2022/12/31 06:22:53;;;;;;;1.85;1.48;;;9.20;99.90;;;;;;2603589;54;21332;31
2022/12/31 06:25:28;;;;;;;2.22;1.48;;;9.30;99.90;;;;;;2603420;54;20927;31
2022/12/31 06:28:06;;;;;;;2.38;1.83;;;9.30;99.90;;;;;;2621317;46;20034;31
2022/12/31 06:30:42;;;;;;;3.35;1.65;;;9.30;99.90;;;;;;2603427;54;20917;31
2022/12/31 06:33:16;;;;;;;2.07;1.33;;;9.30;99.90;;;;;;2603389;54;20054;31
2022/12/31 06:35:51;;;;;;;2.83;1.90;;;9.40;99.90;;;;;;2603343;54;20026;31
2022/12/31 06:38:26;;;;;;;2.80;1.90;;;9.40;99.90;;;;;;2603248;54;20022;31
2022/12/31 06:41:04;;;;;;;3.17;1.80;;;9.40;99.90;;;;;;2603374;54;20797;31
2022/12/31 06:43:41;;;;;;;2.45;1.65;;;9.40;99.90;;;;;;2603266;54;20847;31
2022/12/31 06:46:17;;;;;;;2.83;1.88;;;9.40;99.90;;;;;;2603291;54;20949;31
2022/12/31 06:48:52;;;;;;;2.78;1.98;;;9.40;99.90;;;;;;2603232;54;20030;31
2022/12/31 06:51:25;;;;;;;2.20;1.80;;;9.50;99.90;;;;;;2613949;31;22467;31
2022/12/31 06:54:01;;;;;;;4.28;2.10;;;9.50;99.90;;;;;;2603474;54;20033;31
2022/12/31 06:56:36;;;;;;;4.25;2.80;;;9.50;99.90;;;;;;2603444;54;20117;31
2022/12/31 06:59:27;;;;;;;3.97;2.50;;;9.50;99.90;;;;;;2701482;39;20447;31
2022/12/31 07:02:27;;;;;;;2.45;1.80;;;9.60;99.90;;;;;;2621128;46;20026;31
2022/12/31 07:05:13;;;;;;;2.83;2.40;;;9.60;99.90;;;;;;2701561;39;20411;31
2022/12/31 07:07:52;;;;;;;2.92;1.80;;;9.60;99.90;;;;;;2603354;54;20077;31
2022/12/31 07:10:33;;;;;;;3.60;2.00;;;9.60;99.90;;;;;;2603272;54;20029;31
2022/12/31 07:13:23;;;;;;;4.10;2.47;;;9.60;99.90;;;;;;2603169;54;20073;31
2022/12/31 07:15:59;;;;;;;2.55;1.77;;;9.70;99.90;;;;;;2603377;54;19946;31
2022/12/31 07:18:40;;;;;;;3.05;2.00;;;9.70;99.90;;;;;;2621582;46;20557;31
2022/12/31 07:21:16;;;;;;;2.80;1.85;;;9.80;99.90;;;;;;2603246;54;20894;31
2022/12/31 07:23:52;;;;;;;3.30;2.00;;;9.80;99.90;;;;;;2603400;54;20026;31
2022/12/31 07:26:33;;;;;;;2.45;2.00;;;9.90;99.90;;;;;;2603259;54;20057;31
2022/12/31 07:29:10;;;;;;;2.90;1.60;;;9.90;99.90;;;;;;2603297;54;20137;31
2022/12/31 07:31:53;;;;;;;2.25;1.60;;;10.00;99.90;;;;;;2621948;46;20129;31
2022/12/31 07:34:35;;;;;;;2.85;1.73;;;10.00;99.90;;;;;;2603165;54;20089;31
2022/12/31 07:37:11;;;;;;;3.10;1.40;;;10.10;99.90;;;;;;2603223;54;20022;31
2022/12/31 07:39:48;;;;;;;2.70;1.87;;;10.10;99.90;;;;;;2603123;54;20130;31
2022/12/31 07:42:26;;;;;;;2.15;1.40;;;10.10;99.90;;;;;;2603171;54;19958;31
2022/12/31 07:45:14;;;;;;;2.33;1.50;;;10.20;99.90;;;;;;2603059;54;20579;31
2022/12/31 07:47:55;;;;;;;2.17;1.55;;;10.20;99.90;;;;;;2603502;54;20077;31
2022/12/31 07:50:45;;;;;;;2.20;1.60;;;10.30;99.90;;;;;;2603050;54;20114;31
2022/12/31 07:53:21;;;;;;;2.47;1.17;;;10.40;99.90;;;;;;2603028;54;20847;31
2022/12/31 07:55:59;;;;;;;3.23;1.23;;;10.40;99.90;;;;;;2603104;54;20022;31
2022/12/31 07:58:50;;;;;;;3.05;1.40;;;10.50;99.90;;;;;;2701653;39;20595;31
2022/12/31 08:01:32;;;;;;;2.55;1.13;;;10.60;99.90;;;;;;2603083;54;20909;31
2022/12/31 08:04:11;;;;;;;2.47;1.00;;;10.60;99.90;;;;;;2603091;54;20577;31
2022/12/31 08:06:53;;;;;;;2.00;1.25;;;10.70;99.90;;;;;;2603089;54;20027;31
2022/12/31 08:09:37;;;;;;;1.53;1.03;;;10.80;99.90;;;;;;2621493;46;20132;31
2022/12/31 08:12:14;;;;;;;2.15;1.17;;;10.80;99.90;;;;;;2602749;54;20573;31
2022/12/31 08:14:51;;;;;;;2.25;0.93;;;10.90;99.90;;;;;;2603154;54;20049;31
2022/12/31 08:17:28;;;;;;;2.10;0.88;;;10.90;99.90;;;;;;2602964;54;20972;31
2022/12/31 08:20:07;;;;;;;2.40;0.90;;;10.90;99.90;;;;;;2602762;54;20086;31
2022/12/31 08:22:57;;;;;;;1.80;0.80;;;11.00;99.90;;;;;;2603013;54;20881;31
2022/12/31 08:25:35;;;;;;;1.15;0.80;;;11.10;99.90;;;;;;2603774;54;20832;31
2022/12/31 08:28:17;;;;;;;1.67;0.80;;;11.10;99.90;;;;;;2603894;54;20108;31
2022/12/31 08:31:04;;;;;;;1.58;0.88;;;11.20;99.90;;;;;;2603729;54;19957;31
2022/12/31 08:33:42;;;;;;;1.15;0.75;;;11.30;99.90;;;;;;2603800;54;20945;31
2022/12/31 08:36:20;;;;;;;1.38;0.68;;;11.30;99.90;;;;;;2604016;54;20836;31
2022/12/31 08:39:00;;;;;;;1.63;0.88;;;11.40;99.90;;;;;;2603893;54;20880;31
2022/12/31 08:41:43;;;;;;;1.65;0.70;;;11.50;99.90;;;;;;2603803;54;20935;31
2022/12/31 08:44:21;;;;;;;1.90;0.80;;;11.60;99.90;;;;;;2603881;54;20033;31
2022/12/31 08:46:59;;;;;;;3.28;1.33;;;11.60;99.90;;;;;;2603811;54;20925;31
2022/12/31 08:49:36;;;;;;;1.20;0.80;;;11.70;99.90;;;;;;2622148;46;20037;31
2022/12/31 08:52:18;;;;;;;2.70;1.20;;;11.70;99.90;;;;;;2603821;54;20830;31
2022/12/31 08:54:57;;;;;;;2.88;0.98;;;11.80;99.90;;;;;;2603776;54;20088;31
2022/12/31 08:57:36;;;;;;;1.77;0.90;;;11.90;99.90;;;;;;2603702;54;20030;31
2022/12/31 09:00:14;;;;;;;3.80;1.08;;;12.00;99.90;;;;;;2603802;54;20030;31
2022/12/31 09:03:03;;;;;;;1.70;0.80;;;12.20;99.90;;;;;;2622131;46;20815;31
2022/12/31 09:05:42;;;;;;;1.45;0.70;;;12.30;99.90;;;;;;2621853;46;20794;31
2022/12/31 09:08:16;;;;;;;1.10;0.63;;;12.30;99.90;;;;;;2603322;54;20030;31
2022/12/31 09:10:59;;;;;;;1.10;0.80;;;12.40;99.90;;;;;;2603740;54;20156;31
2022/12/31 09:13:42;;;;;;;1.42;0.70;;;12.50;99.90;;;;;;2603527;54;25039;31
2022/12/31 09:16:20;;;;;;;1.30;0.65;;;12.50;99.90;;;;;;2603607;54;20804;31
2022/12/31 09:18:56;;;;;;;1.13;0.60;;;12.50;99.90;;;;;;2603725;54;20080;31
2022/12/31 09:21:36;;;;;;;2.40;0.70;;;12.60;99.90;;;;;;2603469;54;21446;31
2022/12/31 09:24:15;;;;;;;1.58;0.70;;;12.60;99.90;;;;;;2603608;54;20542;31
2022/12/31 09:27:00;;;;;;;0.90;0.50;;;12.60;99.90;;;;;;2603320;54;20908;31
2022/12/31 09:29:44;;;;;;;2.22;0.70;;;12.70;99.90;;;;;;2603697;54;20852;31
2022/12/31 09:32:26;;;;;;;1.90;0.60;;;12.90;99.90;;;;;;2603795;54;20022;31
2022/12/31 09:35:06;;;;;;;0.70;0.50;;;13.10;99.90;;;;;;2603589;54;21037;31
2022/12/31 09:37:48;;;;;;;1.85;0.40;;;13.30;99.90;;;;;;2621847;46;20097;31
2022/12/31 09:40:43;;;;;;;1.00;0.53;;;13.50;99.90;;;;;;2603511;54;19941;31
2022/12/31 09:43:52;;;;;;;0.80;0.60;;;13.70;99.90;;;;;;2603757;54;20068;31
2022/12/31 09:47:09;;;;;;;3.53;0.60;;;13.80;99.90;;;;;;2603600;54;20934;31
2022/12/31 09:49:44;;;;;;;1.00;0.60;;;13.90;99.90;;;;;;2603652;54;20018;31
2022/12/31 09:52:21;;;;;;;1.15;0.80;;;13.80;99.90;;;;;;2603779;54;20054;31
2022/12/31 09:54:59;;;;;;;1.38;0.60;;;13.90;99.90;;;;;;2603498;54;20065;31
2022/12/31 09:57:41;;;;;;;1.30;0.80;;;14.00;99.90;;;;;;2602689;54;20950;31
2022/12/31 10:00:23;;;;;;;0.85;0.50;;;14.00;99.90;;;;;;2603231;54;20952;31
2022/12/31 10:03:18;;;;;;;1.20;0.70;;;14.10;99.90;;;;;;2602617;54;20985;31
2022/12/31 10:05:58;;;;;;;1.27;0.73;;;14.10;99.90;;;;;;2603213;54;20018;31
2022/12/31 10:08:47;;;;;;;1.10;0.70;;;14.10;99.90;;;;;;2603672;54;20943;31
2022/12/31 10:11:24;;;;;;;1.70;0.80;;;14.00;99.90;;;;;;2603532;54;20049;31
2022/12/31 10:14:09;;;;;;;2.05;1.00;;;14.00;99.90;;;;;;2603384;54;20936;31
2022/12/31 10:17:08;;;;;;;1.40;0.77;;;14.00;99.90;;;;;;2603444;54;20153;31
2022/12/31 10:20:04;;;;;;;1.27;0.67;;;14.00;99.90;;;;;;2603343;54;20178;31
2022/12/31 10:23:24;;;;;;;1.40;0.75;;;14.10;99.90;;;;;;2621757;46;20042;31
2022/12/31 10:26:10;;;;;;;3.10;0.95;;;14.00;99.90;;;;;;2603283;54;20960;31
2022/12/31 10:28:44;;;;;;;;;;;14.10;99.90;;;;;;2603646;54;20892;31
2022/12/31 10:31:27;;;;;;;1.10;0.75;;;14.00;99.90;;;;;;2603520;54;19943;31
2022/12/31 10:33:59;;;;;;;1.20;0.70;;;14.00;99.90;;;;;;2621502;46;25164;31
2022/12/31 10:37:01;;;;;;;1.30;1.00;;;14.00;99.90;;;;;;2603351;54;20904;31
2022/12/31 10:40:04;;;;;;;1.60;0.90;;;14.10;99.90;;;;;;2603573;54;20145;31
2022/12/31 10:42:55;;;;;;;2.50;0.65;;;14.10;99.90;;;;;;2603168;54;20859;31
2022/12/31 10:46:03;;;;;;;1.50;1.00;;;14.20;99.90;;;;;;2603243;54;20122;31
2022/12/31 10:48:58;;;;;;;2.45;0.80;;;14.20;99.90;;;;;;2603462;54;20022;31
2022/12/31 10:51:55;;;;;;;2.17;1.08;;;14.20;99.90;;;;;;2603420;54;20904;31
2022/12/31 10:55:00;;;;;;;2.85;0.98;;;14.30;99.90;;;;;;2621686;46;20019;31
2022/12/31 10:58:02;;;;;;;1.05;0.52;;;14.30;99.90;;;;;;2603360;54;20859;31
2022/12/31 11:00:40;;;;;;;2.88;1.40;;;14.40;99.90;;;;;;2603266;54;20101;31
2022/12/31 11:03:27;;;;;;;1.67;0.73;;;14.40;99.90;;;;;;2603202;54;20925;31
2022/12/31 11:06:39;;;;;;;1.42;0.60;;;14.50;99.90;;;;;;2603445;54;20028;31
2022/12/31 11:09:47;;;;;;;1.30;0.80;;;14.60;99.90;;;;;;2603544;54;20907;31
2022/12/31 11:12:52;;;;;;;6.75;1.50;;;14.60;99.90;;;;;;2603543;54;20022;31
2022/12/31 11:15:56;;;;;;;3.78;0.80;;;14.70;99.90;;;;;;2603173;54;22356;31
2022/12/31 11:18:35;;;;;;;2.45;0.90;;;14.70;99.90;;;;;;2603078;54;20924;31
2022/12/31 11:21:36;;;;;;;4.25;1.20;;;14.80;99.90;;;;;;2603318;54;20906;31
2022/12/31 11:24:23;;;;;;;2.33;0.80;;;14.80;99.90;;;;;;2603240;54;20046;31
2022/12/31 11:27:07;;;;;;;1.45;0.70;;;14.80;99.90;;;;;;2622067;46;20831;31
2022/12/31 11:29:50;;;;;;;2.70;0.90;;;14.80;99.90;;;;;;2603345;54;20019;31
2022/12/31 11:32:34;;;;;;;1.30;0.90;;;14.80;99.90;;;;;;2603171;54;20880;31
2022/12/31 11:35:23;;;;;;;1.85;1.00;;;14.80;99.90;;;;;;2603324;54;20876;31
2022/12/31 11:38:04;;;;;;;2.33;1.10;;;14.80;99.90;;;;;;2602911;54;20966;31
2022/12/31 11:40:43;;;;;;;2.30;0.80;;;14.80;99.90;;;;;;2603123;54;20935;31
2022/12/31 11:43:36;;;;;;;2.03;0.82;;;14.80;99.90;;;;;;2603076;54;20045;31
2022/12/31 11:46:34;;;;;;;1.42;0.80;;;14.80;99.90;;;;;;2603208;54;22462;31
2022/12/31 11:49:30;;;;;;;1.95;1.20;;;14.80;99.90;;;;;;2602965;54;20027;31
2022/12/31 11:52:26;;;;;;;1.48;0.80;;;14.80;99.90;;;;;;2603314;54;20058;31
2022/12/31 11:55:10;;;;;;;2.35;1.35;;;14.80;99.90;;;;;;2603269;54;20873;31
2022/12/31 11:57:48;;;;;;;3.00;1.13;;;14.90;99.90;;;;;;2603006;54;21150;31
2022/12/31 12:00:25;;;;;;;1.75;1.00;;;14.90;99.90;;;;;;2603465;54;19961;31
2022/12/31 12:03:02;;;;;;;2.22;0.88;;;14.90;99.90;;;;;;2612204;46;22508;31
2022/12/31 12:05:40;;;;;;;2.35;0.85;;;15.00;99.90;;;;;;2602145;54;20888;31
2022/12/31 12:08:16;;;;;;;3.75;1.25;;;15.00;99.90;;;;;;2602943;54;20030;31
2022/12/31 12:10:53;;;;;;;2.55;1.10;;;15.00;99.90;;;;;;2621659;46;20049;31
2022/12/31 12:13:27;;;;;;;2.60;0.95;;;15.00;99.90;;;;;;2603040;54;20027;-79
2022/12/31 12:16:03;;;;;;;1.83;1.05;;;15.00;99.90;;;;;;2603237;54;20042;31
2022/12/31 12:18:39;;;;;;;2.38;0.95;;;15.00;99.90;;;;;;2621302;46;20046;31
2022/12/31 12:21:20;;;;;;;1.98;1.23;;;15.10;99.90;;;;;;2603019;54;20832;31
2022/12/31 12:23:54;;;;;;;1.73;0.90;;;15.10;99.90;;;;;;2603048;54;20952;31
2022/12/31 12:26:31;;;;;;;1.85;0.77;;;15.10;99.90;;;;;;2603223;54;20840;31
2022/12/31 12:29:11;;;;;;;1.97;1.03;;;15.20;99.90;;;;;;2603293;54;20029;-79
2022/12/31 12:31:58;;;;;;;2.38;1.00;;;15.20;99.90;;;;;;2603252;54;20022;31
2022/12/31 12:34:40;;;;;;;1.97;1.23;;;15.20;99.90;;;;;;2602967;54;20850;31
2022/12/31 12:37:40;;;;;;;1.88;1.15;;;15.20;99.90;;;;;;2602937;54;20042;31
2022/12/31 12:40:22;;;;;;;1.52;0.90;;;15.20;99.90;;;;;;2603008;54;20053;31
2022/12/31 12:43:07;;;;;;;2.20;1.30;;;15.20;99.90;;;;;;2602897;54;20027;31
2022/12/31 12:45:44;;;;;;;3.45;1.50;;;15.30;99.90;;;;;;2602789;54;20824;31
2022/12/31 12:48:31;;;;;;;1.73;1.10;;;15.30;99.90;;;;;;2603108;54;20057;31
2022/12/31 12:51:16;;;;;;;1.45;0.82;;;15.30;99.90;;;;;;2602835;54;20049;31
2022/12/31 12:53:59;;;;;;;4.90;1.10;;;15.30;99.90;;;;;;2602882;54;20905;31
2022/12/31 12:56:39;;;;;;;2.95;0.95;;;15.30;99.90;;;;;;2602840;54;20113;31
2022/12/31 12:59:30;;;;;;;2.47;1.00;;;15.30;99.90;;;;;;2602908;54;20032;31
2022/12/31 13:02:14;;;;;;;2.13;1.20;;;15.20;99.90;;;;;;2621524;47;20038;31
2022/12/31 13:04:55;;;;;;;4.57;1.23;;;15.20;99.90;;;;;;2602560;54;20046;31
2022/12/31 13:07:35;;;;;;;2.40;1.05;;;15.20;99.90;;;;;;2602894;54;20058;31
2022/12/31 13:10:29;;;;;;;2.88;1.20;;;15.20;99.90;;;;;;2603495;54;20034;31
2022/12/31 13:13:06;;;;;;;1.88;1.20;;;15.20;99.90;;;;;;2603803;54;20037;31
2022/12/31 13:16:01;;;;;;;1.65;1.00;;;15.20;99.90;;;;;;2603874;54;20104;31
2022/12/31 13:18:50;;;;;;;3.25;1.30;;;15.20;99.90;;;;;;2603914;54;20882;31
2022/12/31 13:21:46;;;;;;;2.42;1.08;;;15.20;99.90;;;;;;2603943;54;20835;31
2022/12/31 13:24:30;;;;;;;1.88;1.27;;;15.10;99.90;;;;;;2603565;54;20097;31
2022/12/31 13:27:12;;;;;;;1.83;0.97;;;15.10;99.90;;;;;;2603531;54;20029;31
2022/12/31 13:29:46;;;;;;;2.08;1.38;;;15.10;99.90;;;;;;2603012;54;21315;31
2022/12/31 13:32:21;;;;;;;2.80;1.52;;;15.10;99.90;;;;;;2621195;46;22870;31
2022/12/31 13:34:57;;;;;;;2.60;1.20;;;15.00;99.90;;;;;;2603480;54;20053;31
2022/12/31 13:37:35;;;;;;;2.53;1.20;;;15.00;99.90;;;;;;2603694;54;20782;31
2022/12/31 13:40:20;;;;;;;4.57;2.08;;;15.00;99.90;;;;;;2603638;54;20852;31
2022/12/31 13:42:59;;;;;;;2.60;1.35;;;15.00;99.90;;;;;;2603675;54;20790;31
2022/12/31 13:45:35;;;;;;;4.82;1.63;;;15.00;99.90;;;;;;2621999;46;20023;31
2022/12/31 13:48:14;;;;;;;2.05;1.00;;;15.00;99.90;;;;;;2603602;54;20098;31
2022/12/31 13:50:50;;;;;;;4.40;1.80;;;15.00;99.90;;;;;;2702408;39;20996;31
2022/12/31 13:53:26;;;;;;;2.95;1.45;;;15.00;99.90;;;;;;2603686;54;20279;31
2022/12/31 13:56:03;;;;;;;4.37;1.57;;;15.00;99.90;;;;;;2603651;54;20033;31
2022/12/31 13:58:44;;;;;;;2.60;1.20;;;15.00;99.90;;;;;;2603494;54;20921;31
2022/12/31 14:01:23;;;;;;;3.10;1.40;;;15.00;99.90;;;;;;2603552;54;20052;31
2022/12/31 14:04:09;;;;;;;3.47;1.67;;;15.00;99.90;;;;;;2603557;54;20863;31
2022/12/31 14:06:47;;;;;;;2.65;1.40;;;15.00;99.90;;;;;;2603529;54;20109;31
2022/12/31 14:09:26;;;;;;;2.75;1.42;;;15.00;99.90;;;;;;2603575;54;20022;31
2022/12/31 14:12:24;;;;;;;2.42;1.40;;;14.90;99.90;;;;;;2603593;54;20891;31
2022/12/31 14:15:05;;;;;;;2.60;1.35;;;14.90;99.90;;;;;;2603438;54;20833;31
2022/12/31 14:17:47;;;;;;;2.35;1.40;;;14.90;99.90;;;;;;2603374;54;20026;31
2022/12/31 14:20:26;;;;;;;2.15;1.40;;;14.90;99.90;;;;;;2603050;54;20875;31
2022/12/31 14:23:04;;;;;;;2.85;1.67;;;14.90;99.90;;;;;;2603472;54;20089;31